createdAt,value
2023-03-11T00:00:04.950Z,290.000000
2023-03-11T00:01:00.257Z,290.000000
2023-03-11T00:02:00.405Z,290.000000
2023-03-11T00:03:00.249Z,315.000000
2023-03-11T00:04:00.320Z,315.000000
2023-03-11T00:05:04.751Z,297.500000
2023-03-11T00:06:00.373Z,297.500000
2023-03-11T00:07:00.255Z,297.500000
2023-03-11T00:08:00.375Z,297.500000
2023-03-11T00:09:00.288Z,297.500000
2023-03-11T00:10:04.008Z,300.000000
2023-03-11T00:11:00.311Z,300.000000
2023-03-11T00:12:00.407Z,295.000000
2023-03-11T00:13:00.301Z,295.000000
2023-03-11T00:14:00.439Z,282.500000
2023-03-11T00:15:05.292Z,282.500000
2023-03-11T00:16:00.400Z,282.500000
2023-03-11T00:17:00.337Z,307.500000
2023-03-11T00:18:00.464Z,307.500000
2023-03-11T00:19:00.358Z,307.500000
2023-03-11T00:20:05.105Z,290.000000
2023-03-11T00:21:00.384Z,290.000000
2023-03-11T00:22:00.455Z,290.000000
2023-03-11T00:23:00.379Z,287.500000
2023-03-11T00:24:00.457Z,287.500000
2023-03-11T00:25:04.867Z,297.500000
2023-03-11T00:26:00.472Z,297.500000
2023-03-11T00:27:00.393Z,297.500000
2023-03-11T00:28:00.485Z,300.000000
2023-03-11T00:29:00.397Z,300.000000
2023-03-11T00:30:05.223Z,305.000000
2023-03-11T00:31:00.433Z,305.000000
2023-03-11T00:32:00.515Z,305.000000
2023-03-11T00:33:00.428Z,305.000000
2023-03-11T00:34:00.514Z,305.000000
2023-03-11T00:35:04.917Z,290.000000
2023-03-11T00:36:00.586Z,290.000000
2023-03-11T00:37:00.455Z,290.000000
2023-03-11T00:38:00.548Z,300.000000
2023-03-11T00:39:00.496Z,300.000000
2023-03-11T00:40:05.195Z,295.000000
2023-03-11T00:41:00.463Z,295.000000
2023-03-11T00:42:00.573Z,295.000000
2023-03-11T00:43:00.486Z,305.000000
2023-03-11T00:44:00.604Z,305.000000
2023-03-11T00:45:05.079Z,305.000000
2023-03-11T00:46:00.644Z,305.000000
2023-03-11T00:47:00.515Z,305.000000
2023-03-11T00:48:00.619Z,300.000000
2023-03-11T00:49:00.514Z,300.000000
2023-03-11T00:50:05.923Z,300.000000
2023-03-11T00:51:00.550Z,295.000000
2023-03-11T00:52:00.618Z,295.000000
2023-03-11T00:53:00.545Z,302.500000
2023-03-11T00:54:00.642Z,302.500000
2023-03-11T00:55:04.996Z,302.500000
2023-03-11T00:56:00.671Z,295.000000
2023-03-11T00:57:00.612Z,295.000000
2023-03-11T00:58:00.649Z,307.500000
2023-03-11T00:59:00.579Z,307.500000
2023-03-11T01:00:05.525Z,307.500000
2023-03-11T01:01:00.636Z,307.500000
2023-03-11T01:02:00.872Z,307.500000
2023-03-11T01:03:00.677Z,305.000000
2023-03-11T01:04:00.707Z,305.000000
2023-03-11T01:05:04.281Z,305.000000
2023-03-11T01:06:00.724Z,302.500000
2023-03-11T01:07:00.637Z,302.500000
2023-03-11T01:08:00.788Z,300.000000
2023-03-11T01:09:00.675Z,300.000000
2023-03-11T01:10:05.327Z,305.000000
2023-03-11T01:11:00.697Z,305.000000
2023-03-11T01:12:00.776Z,305.000000
2023-03-11T01:13:00.687Z,310.000000
2023-03-11T01:14:00.814Z,310.000000
2023-03-11T01:15:05.234Z,310.000000
2023-03-11T01:16:00.831Z,307.500000
2023-03-11T01:17:00.705Z,307.500000
2023-03-11T01:18:00.846Z,307.500000
2023-03-11T01:19:00.720Z,305.000000
2023-03-11T01:20:05.514Z,305.000000
2023-03-11T01:21:00.734Z,310.000000
2023-03-11T01:22:00.826Z,310.000000
2023-03-11T01:23:00.741Z,310.000000
2023-03-11T01:24:00.845Z,310.000000
2023-03-11T01:25:05.219Z,310.000000
2023-03-11T01:26:00.853Z,305.000000
2023-03-11T01:27:00.778Z,305.000000
2023-03-11T01:28:00.833Z,305.000000
2023-03-11T01:29:00.803Z,305.000000
2023-03-11T01:30:05.460Z,305.000000
2023-03-11T01:31:00.845Z,307.500000
2023-03-11T01:32:00.923Z,307.500000
2023-03-11T01:33:00.814Z,305.000000
2023-03-11T01:34:00.982Z,305.000000
2023-03-11T01:35:04.240Z,305.000000
2023-03-11T01:36:00.956Z,285.000000
2023-03-11T01:37:00.844Z,285.000000
2023-03-11T01:38:00.956Z,285.000000
2023-03-11T01:39:00.870Z,302.500000
2023-03-11T01:40:05.549Z,302.500000
2023-03-11T01:41:00.901Z,310.000000
2023-03-11T01:42:00.970Z,310.000000
2023-03-11T01:43:00.881Z,307.500000
2023-03-11T01:44:01.006Z,307.500000
2023-03-11T01:45:08.050Z,307.500000
2023-03-11T01:46:01.057Z,307.500000
2023-03-11T01:47:00.924Z,307.500000
2023-03-11T01:48:01.025Z,307.500000
2023-03-11T01:49:00.961Z,300.000000
2023-03-11T01:50:04.655Z,300.000000
2023-03-11T01:51:00.985Z,300.000000
2023-03-11T01:52:01.021Z,300.000000
2023-03-11T01:53:00.986Z,300.000000
2023-03-11T01:54:01.062Z,305.000000
2023-03-11T01:55:05.639Z,305.000000
2023-03-11T01:56:01.074Z,310.000000
2023-03-11T01:57:01.004Z,310.000000
2023-03-11T01:58:01.113Z,310.000000
2023-03-11T01:59:00.984Z,300.000000
2023-03-11T02:00:05.910Z,300.000000
2023-03-11T02:01:01.060Z,300.000000
2023-03-11T02:02:01.168Z,300.000000
2023-03-11T02:03:01.199Z,300.000000
2023-03-11T02:04:01.131Z,302.500000
2023-03-11T02:05:04.527Z,302.500000
2023-03-11T02:06:01.256Z,307.500000
2023-03-11T02:07:01.065Z,307.500000
2023-03-11T02:08:01.196Z,307.500000
2023-03-11T02:09:01.109Z,305.000000
2023-03-11T02:10:05.888Z,305.000000
2023-03-11T02:11:01.125Z,305.000000
2023-03-11T02:12:02.636Z,292.500000
2023-03-11T02:13:01.156Z,292.500000
2023-03-11T02:14:01.218Z,292.500000
2023-03-11T02:15:05.632Z,317.500000
2023-03-11T02:16:01.283Z,317.500000
2023-03-11T02:17:01.166Z,300.000000
2023-03-11T02:18:01.303Z,300.000000
2023-03-11T02:19:01.176Z,297.500000
2023-03-11T02:20:05.895Z,297.500000
2023-03-11T02:21:01.196Z,297.500000
2023-03-11T02:22:01.305Z,292.500000
2023-03-11T02:23:01.190Z,292.500000
2023-03-11T02:24:01.305Z,292.500000
2023-03-11T02:25:04.665Z,290.000000
2023-03-11T02:26:00.298Z,290.000000
2023-03-11T02:27:00.244Z,300.000000
2023-03-11T02:28:00.325Z,300.000000
2023-03-11T02:29:00.233Z,290.000000
2023-03-11T02:30:05.022Z,290.000000
2023-03-11T02:31:00.292Z,290.000000
2023-03-11T02:32:00.360Z,282.500000
2023-03-11T02:33:00.285Z,282.500000
2023-03-11T02:34:00.372Z,282.500000
2023-03-11T02:35:03.732Z,295.000000
2023-03-11T02:36:00.664Z,295.000000
2023-03-11T02:37:00.295Z,297.500000
2023-03-11T02:38:00.402Z,297.500000
2023-03-11T02:39:00.315Z,297.500000
2023-03-11T02:40:05.692Z,297.500000
2023-03-11T02:41:00.346Z,297.500000
2023-03-11T02:42:00.450Z,295.000000
2023-03-11T02:43:00.339Z,295.000000
2023-03-11T02:44:00.449Z,295.000000
2023-03-11T02:45:04.000Z,310.000000
2023-03-11T02:46:00.462Z,310.000000
2023-03-11T02:47:00.397Z,300.000000
2023-03-11T02:48:00.489Z,300.000000
2023-03-11T02:49:00.374Z,300.000000
2023-03-11T02:50:05.174Z,300.000000
2023-03-11T02:51:00.409Z,300.000000
2023-03-11T02:52:00.470Z,300.000000
2023-03-11T02:53:00.401Z,300.000000
2023-03-11T02:54:00.550Z,300.000000
2023-03-11T02:55:03.956Z,305.000000
2023-03-11T02:56:00.484Z,305.000000
2023-03-11T02:57:00.424Z,310.000000
2023-03-11T02:58:00.494Z,310.000000
2023-03-11T02:59:00.422Z,310.000000
2023-03-11T03:00:05.206Z,305.000000
2023-03-11T03:01:00.497Z,305.000000
2023-03-11T03:02:00.528Z,305.000000
2023-03-11T03:03:00.477Z,305.000000
2023-03-11T03:04:00.642Z,292.500000
2023-03-11T03:05:04.070Z,292.500000
2023-03-11T03:06:00.582Z,292.500000
2023-03-11T03:07:00.489Z,280.000000
2023-03-11T03:08:00.633Z,280.000000
2023-03-11T03:09:00.525Z,280.000000
2023-03-11T03:10:05.324Z,307.500000
2023-03-11T03:11:00.540Z,307.500000
2023-03-11T03:12:00.671Z,285.000000
2023-03-11T03:13:00.555Z,285.000000
2023-03-11T03:14:00.637Z,285.000000
2023-03-11T03:15:05.109Z,285.000000
2023-03-11T03:16:00.670Z,285.000000
2023-03-11T03:17:00.794Z,280.000000
2023-03-11T03:18:00.690Z,280.000000
2023-03-11T03:19:00.587Z,280.000000
2023-03-11T03:20:05.383Z,295.000000
2023-03-11T03:21:00.591Z,295.000000
2023-03-11T03:22:00.680Z,290.000000
2023-03-11T03:23:00.610Z,290.000000
2023-03-11T03:24:00.713Z,305.000000
2023-03-11T03:25:04.196Z,305.000000
2023-03-11T03:26:00.713Z,305.000000
2023-03-11T03:27:00.663Z,305.000000
2023-03-11T03:28:00.706Z,305.000000
2023-03-11T03:29:00.624Z,305.000000
2023-03-11T03:30:05.301Z,290.000000
2023-03-11T03:31:00.640Z,290.000000
2023-03-11T03:32:00.849Z,290.000000
2023-03-11T03:33:00.690Z,302.500000
2023-03-11T03:34:00.825Z,302.500000
2023-03-11T03:35:06.016Z,315.000000
2023-03-11T03:36:00.849Z,315.000000
2023-03-11T03:37:00.750Z,297.500000
2023-03-11T03:38:00.776Z,297.500000
2023-03-11T03:39:00.713Z,297.500000
2023-03-11T03:40:04.546Z,280.000000
2023-03-11T03:41:00.702Z,280.000000
2023-03-11T03:42:00.812Z,280.000000
2023-03-11T03:43:00.720Z,277.500000
2023-03-11T03:44:00.813Z,277.500000
2023-03-11T03:45:05.309Z,290.000000
2023-03-11T03:46:00.868Z,290.000000
2023-03-11T03:47:00.788Z,302.500000
2023-03-11T03:48:00.847Z,302.500000
2023-03-11T03:49:00.736Z,302.500000
2023-03-11T03:50:05.482Z,290.000000
2023-03-11T03:51:00.794Z,290.000000
2023-03-11T03:52:00.839Z,290.000000
2023-03-11T03:53:00.776Z,295.000000
2023-03-11T03:54:00.873Z,295.000000
2023-03-11T03:55:04.286Z,295.000000
2023-03-11T03:56:00.869Z,295.000000
2023-03-11T03:57:00.833Z,295.000000
2023-03-11T03:58:00.906Z,302.500000
2023-03-11T03:59:00.796Z,302.500000
2023-03-11T04:00:05.548Z,292.500000
2023-03-11T04:01:00.828Z,292.500000
2023-03-11T04:02:00.969Z,292.500000
2023-03-11T04:03:00.948Z,305.000000
2023-03-11T04:04:00.991Z,305.000000
2023-03-11T04:05:05.460Z,290.000000
2023-03-11T04:06:00.955Z,290.000000
2023-03-11T04:07:00.889Z,290.000000
2023-03-11T04:08:00.958Z,297.500000
2023-03-11T04:09:00.940Z,297.500000
2023-03-11T04:10:05.561Z,310.000000
2023-03-11T04:11:00.905Z,310.000000
2023-03-11T04:12:00.983Z,310.000000
2023-03-11T04:13:00.930Z,302.500000
2023-03-11T04:14:01.053Z,302.500000
2023-03-11T04:15:04.460Z,302.500000
2023-03-11T04:16:01.006Z,295.000000
2023-03-11T04:17:01.025Z,295.000000
2023-03-11T04:18:01.060Z,305.000000
2023-03-11T04:19:00.976Z,305.000000
2023-03-11T04:20:05.757Z,302.500000
2023-03-11T04:21:00.981Z,302.500000
2023-03-11T04:22:01.069Z,302.500000
2023-03-11T04:23:00.999Z,305.000000
2023-03-11T04:24:01.086Z,305.000000
2023-03-11T04:25:04.496Z,295.000000
2023-03-11T04:26:01.100Z,295.000000
2023-03-11T04:27:01.022Z,295.000000
2023-03-11T04:28:01.102Z,290.000000
2023-03-11T04:29:01.014Z,290.000000
2023-03-11T04:30:06.643Z,307.500000
2023-03-11T04:31:01.079Z,307.500000
2023-03-11T04:32:01.129Z,307.500000
2023-03-11T04:33:01.060Z,307.500000
2023-03-11T04:34:01.116Z,307.500000
2023-03-11T04:35:04.534Z,307.500000
2023-03-11T04:36:01.240Z,307.500000
2023-03-11T04:37:01.073Z,307.500000
2023-03-11T04:38:01.314Z,300.000000
2023-03-11T04:39:01.091Z,300.000000
2023-03-11T04:40:05.857Z,282.500000
2023-03-11T04:41:01.078Z,282.500000
2023-03-11T04:42:03.891Z,282.500000
2023-03-11T04:43:01.099Z,300.000000
2023-03-11T04:44:01.242Z,300.000000
2023-03-11T04:45:05.891Z,300.000000
2023-03-11T04:46:01.391Z,295.000000
2023-03-11T04:47:01.139Z,295.000000
2023-03-11T04:48:01.254Z,295.000000
2023-03-11T04:49:01.136Z,295.000000
2023-03-11T04:50:05.899Z,295.000000
2023-03-11T04:51:01.166Z,290.000000
2023-03-11T04:52:01.278Z,290.000000
2023-03-11T04:53:01.182Z,290.000000
2023-03-11T04:54:01.289Z,275.000000
2023-03-11T04:55:05.753Z,275.000000
2023-03-11T04:56:01.301Z,275.000000
2023-03-11T04:57:01.207Z,275.000000
2023-03-11T04:58:01.299Z,275.000000
2023-03-11T04:59:00.244Z,305.000000
2023-03-11T05:00:05.024Z,305.000000
2023-03-11T05:01:01.218Z,310.000000
2023-03-11T05:02:01.353Z,310.000000
2023-03-11T05:03:01.314Z,310.000000
2023-03-11T05:04:00.302Z,307.500000
2023-03-11T05:05:04.716Z,307.500000
2023-03-11T05:06:00.407Z,280.000000
2023-03-11T05:07:00.240Z,280.000000
2023-03-11T05:08:00.359Z,280.000000
2023-03-11T05:09:00.251Z,297.500000
2023-03-11T05:10:05.063Z,297.500000
2023-03-11T05:11:00.264Z,297.500000
2023-03-11T05:12:00.352Z,292.500000
2023-03-11T05:13:00.285Z,292.500000
2023-03-11T05:14:00.371Z,290.000000
2023-03-11T05:15:03.907Z,290.000000
2023-03-11T05:16:00.391Z,290.000000
2023-03-11T05:17:00.304Z,302.500000
2023-03-11T05:18:00.464Z,302.500000
2023-03-11T05:19:00.296Z,310.000000
2023-03-11T05:20:05.018Z,310.000000
2023-03-11T05:21:00.357Z,310.000000
2023-03-11T05:22:00.406Z,310.000000
2023-03-11T05:23:00.330Z,310.000000
2023-03-11T05:24:00.426Z,312.500000
2023-03-11T05:25:05.526Z,312.500000
2023-03-11T05:26:00.453Z,312.500000
2023-03-11T05:27:00.392Z,302.500000
2023-03-11T05:28:00.443Z,302.500000
2023-03-11T05:29:00.382Z,315.000000
2023-03-11T05:30:05.243Z,315.000000
2023-03-11T05:31:00.478Z,315.000000
2023-03-11T05:32:00.480Z,317.500000
2023-03-11T05:33:00.407Z,317.500000
2023-03-11T05:34:00.519Z,317.500000
2023-03-11T05:35:04.975Z,305.000000
2023-03-11T05:36:00.538Z,305.000000
2023-03-11T05:37:02.726Z,290.000000
2023-03-11T05:38:00.509Z,290.000000
2023-03-11T05:39:00.438Z,302.500000
2023-03-11T05:40:05.192Z,302.500000
2023-03-11T05:41:00.437Z,315.000000
2023-03-11T05:42:00.541Z,315.000000
2023-03-11T05:43:00.470Z,315.000000
2023-03-11T05:44:00.537Z,315.000000
2023-03-11T05:45:04.978Z,315.000000
2023-03-11T05:46:00.590Z,315.000000
2023-03-11T05:47:00.586Z,317.500000
2023-03-11T05:48:00.604Z,317.500000
2023-03-11T05:49:00.527Z,317.500000
2023-03-11T05:50:04.282Z,317.500000
2023-03-11T05:51:00.521Z,320.000000
2023-03-11T05:52:00.609Z,320.000000
2023-03-11T05:53:00.520Z,320.000000
2023-03-11T05:54:03.753Z,312.500000
2023-03-11T05:55:05.023Z,312.500000
2023-03-11T05:56:00.615Z,312.500000
2023-03-11T05:57:00.569Z,297.500000
2023-03-11T05:58:00.693Z,297.500000
2023-03-11T05:59:00.532Z,312.500000
2023-03-11T06:00:06.169Z,312.500000
2023-03-11T06:01:00.601Z,312.500000
2023-03-11T06:02:00.657Z,315.000000
2023-03-11T06:03:00.627Z,315.000000
2023-03-11T06:04:00.740Z,310.000000
2023-03-11T06:05:08.061Z,310.000000
2023-03-11T06:06:00.727Z,310.000000
2023-03-11T06:07:00.617Z,307.500000
2023-03-11T06:08:00.698Z,307.500000
2023-03-11T06:09:00.641Z,307.500000
2023-03-11T06:10:05.326Z,307.500000
2023-03-11T06:11:00.638Z,307.500000
2023-03-11T06:12:00.766Z,307.500000
2023-03-11T06:13:00.645Z,307.500000
2023-03-11T06:14:00.746Z,310.000000
2023-03-11T06:15:04.366Z,310.000000
2023-03-11T06:16:00.759Z,310.000000
2023-03-11T06:17:00.676Z,317.500000
2023-03-11T06:18:00.802Z,317.500000
2023-03-11T06:19:00.728Z,307.500000
2023-03-11T06:20:07.449Z,307.500000
2023-03-11T06:21:00.715Z,307.500000
2023-03-11T06:22:00.838Z,300.000000
2023-03-11T06:23:00.701Z,300.000000
2023-03-11T06:24:00.833Z,300.000000
2023-03-11T06:25:05.164Z,300.000000
2023-03-11T06:26:00.792Z,300.000000
2023-03-11T06:27:00.746Z,310.000000
2023-03-11T06:28:00.810Z,310.000000
2023-03-11T06:29:00.736Z,310.000000
2023-03-11T06:30:05.595Z,307.500000
2023-03-11T06:31:00.759Z,307.500000
2023-03-11T06:32:00.838Z,312.500000
2023-03-11T06:33:00.796Z,312.500000
2023-03-11T06:34:00.864Z,312.500000
2023-03-11T06:35:05.304Z,312.500000
2023-03-11T06:36:00.959Z,312.500000
2023-03-11T06:37:00.803Z,305.000000
2023-03-11T06:38:00.921Z,305.000000
2023-03-11T06:39:00.833Z,305.000000
2023-03-11T06:40:05.553Z,307.500000
2023-03-11T06:41:00.840Z,307.500000
2023-03-11T06:42:01.020Z,305.000000
2023-03-11T06:43:00.869Z,305.000000
2023-03-11T06:44:00.964Z,305.000000
2023-03-11T06:45:05.470Z,305.000000
2023-03-11T06:46:01.048Z,305.000000
2023-03-11T06:47:00.889Z,307.500000
2023-03-11T06:48:01.011Z,307.500000
2023-03-11T06:49:00.907Z,307.500000
2023-03-11T06:50:05.655Z,320.000000
2023-03-11T06:51:00.919Z,320.000000
2023-03-11T06:52:00.985Z,320.000000
2023-03-11T06:53:00.924Z,307.500000
2023-03-11T06:54:01.052Z,307.500000
2023-03-11T06:55:05.373Z,305.000000
2023-03-11T06:56:01.017Z,305.000000
2023-03-11T06:57:00.958Z,312.500000
2023-03-11T06:58:01.017Z,312.500000
2023-03-11T06:59:00.945Z,305.000000
2023-03-11T07:00:05.930Z,305.000000
2023-03-11T07:01:01.062Z,305.000000
2023-03-11T07:02:01.048Z,302.500000
2023-03-11T07:03:01.011Z,302.500000
2023-03-11T07:04:01.132Z,302.500000
2023-03-11T07:05:05.542Z,302.500000
2023-03-11T07:06:01.136Z,302.500000
2023-03-11T07:07:01.042Z,310.000000
2023-03-11T07:08:01.128Z,310.000000
2023-03-11T07:09:01.062Z,310.000000
2023-03-11T07:10:05.765Z,312.500000
2023-03-11T07:11:01.098Z,312.500000
2023-03-11T07:12:01.149Z,312.500000
2023-03-11T07:13:01.062Z,312.500000
2023-03-11T07:14:01.158Z,312.500000
2023-03-11T07:15:06.321Z,305.000000
2023-03-11T07:16:01.195Z,305.000000
2023-03-11T07:17:01.252Z,302.500000
2023-03-11T07:18:01.183Z,302.500000
2023-03-11T07:19:01.102Z,302.500000
2023-03-11T07:20:05.873Z,290.000000
2023-03-11T07:21:01.137Z,290.000000
2023-03-11T07:22:03.324Z,290.000000
2023-03-11T07:23:01.133Z,302.500000
2023-03-11T07:24:01.218Z,302.500000
2023-03-11T07:25:05.576Z,302.500000
2023-03-11T07:26:01.266Z,300.000000
2023-03-11T07:27:01.166Z,300.000000
2023-03-11T07:28:01.260Z,315.000000
2023-03-11T07:29:01.186Z,315.000000
2023-03-11T07:30:05.946Z,315.000000
2023-03-11T07:31:01.203Z,315.000000
2023-03-11T07:32:01.402Z,315.000000
2023-03-11T07:33:01.230Z,300.000000
2023-03-11T07:34:00.314Z,300.000000
2023-03-11T07:35:05.096Z,305.000000
2023-03-11T07:36:00.361Z,305.000000
2023-03-11T07:37:00.204Z,305.000000
2023-03-11T07:38:00.296Z,302.500000
2023-03-11T07:39:02.544Z,302.500000
2023-03-11T07:40:05.128Z,307.500000
2023-03-11T07:41:00.252Z,307.500000
2023-03-11T07:42:00.356Z,307.500000
2023-03-11T07:43:00.259Z,305.000000
2023-03-11T07:44:00.334Z,305.000000
2023-03-11T07:45:04.869Z,305.000000
2023-03-11T07:46:00.406Z,297.500000
2023-03-11T07:47:00.267Z,297.500000
2023-03-11T07:48:00.352Z,270.000000
2023-03-11T07:49:00.280Z,270.000000
2023-03-11T07:50:05.328Z,305.000000
2023-03-11T07:51:00.293Z,305.000000
2023-03-11T07:52:00.377Z,300.000000
2023-03-11T07:53:00.289Z,300.000000
2023-03-11T07:54:00.392Z,300.000000
2023-03-11T07:55:03.942Z,300.000000
2023-03-11T07:56:00.393Z,300.000000
2023-03-11T07:57:00.322Z,300.000000
2023-03-11T07:58:00.435Z,310.000000
2023-03-11T07:59:00.313Z,310.000000
2023-03-11T08:00:05.206Z,282.500000
2023-03-11T08:01:00.355Z,282.500000
2023-03-11T08:02:00.459Z,290.000000
2023-03-11T08:03:00.359Z,290.000000
2023-03-11T08:04:00.497Z,290.000000
2023-03-11T08:05:04.823Z,290.000000
2023-03-11T08:06:00.464Z,290.000000
2023-03-11T08:07:00.386Z,290.000000
2023-03-11T08:08:00.442Z,315.000000
2023-03-11T08:09:00.400Z,315.000000
2023-03-11T08:10:05.885Z,295.000000
2023-03-11T08:11:00.390Z,295.000000
2023-03-11T08:12:00.474Z,295.000000
2023-03-11T08:13:00.453Z,305.000000
2023-03-11T08:14:00.503Z,305.000000
2023-03-11T08:15:04.832Z,305.000000
2023-03-11T08:16:00.589Z,300.000000
2023-03-11T08:17:00.427Z,300.000000
2023-03-11T08:18:00.572Z,300.000000
2023-03-11T08:19:00.455Z,295.000000
2023-03-11T08:20:05.110Z,295.000000
2023-03-11T08:21:00.465Z,285.000000
2023-03-11T08:22:00.572Z,285.000000
2023-03-11T08:23:00.474Z,300.000000
2023-03-11T08:24:00.600Z,300.000000
2023-03-11T08:25:04.238Z,297.500000
2023-03-11T08:26:00.575Z,297.500000
2023-03-11T08:27:00.510Z,297.500000
2023-03-11T08:28:00.616Z,297.500000
2023-03-11T08:29:00.517Z,297.500000
2023-03-11T08:30:05.242Z,297.500000
2023-03-11T08:31:00.560Z,305.000000
2023-03-11T08:32:00.606Z,305.000000
2023-03-11T08:33:00.539Z,317.500000
2023-03-11T08:34:00.630Z,317.500000
2023-03-11T08:35:03.961Z,317.500000
2023-03-11T08:36:00.768Z,300.000000
2023-03-11T08:37:00.543Z,300.000000
2023-03-11T08:38:00.625Z,300.000000
2023-03-11T08:39:00.801Z,295.000000
2023-03-11T08:40:05.615Z,295.000000
2023-03-11T08:41:00.584Z,317.500000
2023-03-11T08:42:00.649Z,317.500000
2023-03-11T08:43:00.580Z,317.500000
2023-03-11T08:44:00.670Z,317.500000
2023-03-11T08:45:04.138Z,317.500000
2023-03-11T08:46:00.758Z,317.500000
2023-03-11T08:47:00.601Z,317.500000
2023-03-11T08:48:00.688Z,295.000000
2023-03-11T08:49:01.304Z,295.000000
2023-03-11T08:50:05.624Z,295.000000
2023-03-11T08:51:00.650Z,330.000000
2023-03-11T08:52:00.715Z,330.000000
2023-03-11T08:53:00.661Z,330.000000
2023-03-11T08:54:00.732Z,297.500000
2023-03-11T08:55:05.136Z,297.500000
2023-03-11T08:56:00.746Z,325.000000
2023-03-11T08:57:00.682Z,317.500000
2023-03-11T08:58:00.764Z,300.000000
2023-03-11T08:59:00.675Z,300.000000
2023-03-11T09:00:05.553Z,300.000000
2023-03-11T09:01:00.721Z,297.500000
2023-03-11T09:02:00.803Z,297.500000
2023-03-11T09:03:00.910Z,297.500000
2023-03-11T09:04:00.797Z,252.500000
2023-03-11T09:05:05.937Z,252.500000
2023-03-11T09:06:00.826Z,252.500000
2023-03-11T09:07:00.728Z,310.000000
2023-03-11T09:08:00.793Z,310.000000
2023-03-11T09:09:00.725Z,315.000000
2023-03-11T09:10:05.429Z,315.000000
2023-03-11T09:11:00.733Z,292.500000
2023-03-11T09:12:00.843Z,292.500000
2023-03-11T09:13:00.732Z,292.500000
2023-03-11T09:14:00.810Z,300.000000
2023-03-11T09:15:05.161Z,300.000000
2023-03-11T09:16:00.991Z,300.000000
2023-03-11T09:17:00.760Z,300.000000
2023-03-11T09:18:00.886Z,300.000000
2023-03-11T09:19:00.807Z,255.000000
2023-03-11T09:20:04.525Z,255.000000
2023-03-11T09:21:00.801Z,252.500000
2023-03-11T09:22:00.894Z,252.500000
2023-03-11T09:23:00.826Z,252.500000
2023-03-11T09:24:00.903Z,357.500000
2023-03-11T09:25:05.330Z,357.500000
2023-03-11T09:26:00.894Z,122.500000
2023-03-11T09:27:00.841Z,122.500000
2023-03-11T09:28:00.922Z,122.500000
2023-03-11T09:29:00.825Z,230.000000
2023-03-11T09:30:06.048Z,230.000000
2023-03-11T09:31:00.938Z,315.000000
2023-03-11T09:32:00.956Z,315.000000
2023-03-11T09:33:00.867Z,315.000000
2023-03-11T09:34:01.195Z,325.000000
2023-03-11T09:35:05.515Z,325.000000
2023-03-11T09:36:01.010Z,325.000000
2023-03-11T09:37:00.876Z,327.500000
2023-03-11T09:38:00.962Z,327.500000
2023-03-11T09:39:00.905Z,327.500000
2023-03-11T09:40:05.684Z,345.000000
2023-03-11T09:41:00.903Z,345.000000
2023-03-11T09:42:00.988Z,0.000000
2023-03-11T09:43:00.924Z,0.000000
2023-03-11T09:44:00.994Z,2.500000
2023-03-11T09:45:05.451Z,2.500000
2023-03-11T09:46:01.034Z,2.500000
2023-03-11T09:47:01.032Z,307.500000
2023-03-11T09:48:01.032Z,307.500000
2023-03-11T09:49:00.956Z,307.500000
2023-03-11T09:50:05.646Z,17.500000
2023-03-11T09:51:00.965Z,17.500000
2023-03-11T09:52:01.060Z,320.000000
2023-03-11T09:53:00.970Z,320.000000
2023-03-11T09:54:01.071Z,315.000000
2023-03-11T09:55:05.509Z,315.000000
2023-03-11T09:56:01.076Z,315.000000
2023-03-11T09:57:01.021Z,170.000000
2023-03-11T09:58:01.097Z,170.000000
2023-03-11T09:59:01.013Z,170.000000
2023-03-11T10:00:06.766Z,207.500000
2023-03-11T10:01:01.076Z,207.500000
2023-03-11T10:02:01.153Z,207.500000
2023-03-11T10:03:01.091Z,310.000000
2023-03-11T10:04:01.142Z,310.000000
2023-03-11T10:05:04.861Z,350.000000
2023-03-11T10:06:01.184Z,350.000000
2023-03-11T10:07:01.074Z,337.500000
2023-03-11T10:08:01.136Z,337.500000
2023-03-11T10:09:01.083Z,337.500000
2023-03-11T10:10:06.088Z,342.500000
2023-03-11T10:11:01.105Z,342.500000
2023-03-11T10:12:01.194Z,342.500000
2023-03-11T10:13:01.086Z,10.000000
2023-03-11T10:14:01.178Z,10.000000
2023-03-11T10:15:05.619Z,350.000000
2023-03-11T10:16:01.260Z,350.000000
2023-03-11T10:17:01.125Z,330.000000
2023-03-11T10:18:01.225Z,330.000000
2023-03-11T10:19:01.174Z,330.000000
2023-03-11T10:20:05.841Z,330.000000
2023-03-11T10:21:01.182Z,330.000000
2023-03-11T10:22:01.290Z,330.000000
2023-03-11T10:23:01.156Z,352.500000
2023-03-11T10:24:01.253Z,352.500000
2023-03-11T10:25:04.848Z,300.000000
2023-03-11T10:26:01.277Z,300.000000
2023-03-11T10:27:01.199Z,300.000000
2023-03-11T10:28:01.261Z,287.500000
2023-03-11T10:29:00.194Z,287.500000
2023-03-11T10:30:05.031Z,262.500000
2023-03-11T10:31:00.217Z,262.500000
2023-03-11T10:32:00.317Z,262.500000
2023-03-11T10:33:00.238Z,265.000000
2023-03-11T10:34:00.301Z,265.000000
2023-03-11T10:35:04.894Z,280.000000
2023-03-11T10:36:00.378Z,280.000000
2023-03-11T10:37:00.233Z,280.000000
2023-03-11T10:38:00.524Z,315.000000
2023-03-11T10:39:00.279Z,315.000000
2023-03-11T10:40:04.963Z,307.500000
2023-03-11T10:41:00.250Z,307.500000
2023-03-11T10:42:00.354Z,307.500000
2023-03-11T10:43:00.287Z,0.000000
2023-03-11T10:44:00.369Z,0.000000
2023-03-11T10:45:04.789Z,0.000000
2023-03-11T10:46:00.471Z,0.000000
2023-03-11T10:47:00.299Z,0.000000
2023-03-11T10:48:00.411Z,42.500000
2023-03-11T10:49:00.302Z,42.500000
2023-03-11T10:50:05.076Z,355.000000
2023-03-11T10:51:00.324Z,355.000000
2023-03-11T10:52:00.404Z,317.500000
2023-03-11T10:53:00.313Z,317.500000
2023-03-11T10:54:00.441Z,317.500000
2023-03-11T10:55:05.371Z,322.500000
2023-03-11T10:56:00.432Z,322.500000
2023-03-11T10:57:00.379Z,322.500000
2023-03-11T10:58:00.476Z,330.000000
2023-03-11T10:59:00.368Z,330.000000
2023-03-11T11:00:04.391Z,340.000000
2023-03-11T11:01:00.445Z,340.000000
2023-03-11T11:02:00.476Z,5.000000
2023-03-11T11:03:00.445Z,5.000000
2023-03-11T11:04:00.513Z,5.000000
2023-03-11T11:05:04.929Z,15.000000
2023-03-11T11:06:00.514Z,15.000000